Time;durP1;ratioP1;P1;durP2;ratioP2;P2;SDS_P1;SDS_P2;PMS_P1;PMS_P2;Temp;Humidity;BMP_temperature;BMP_pressure;BME280_temperature;BME280_humidity;BME280_pressure;Samples;Min_cycle;Max_cycle;Signal;HPM_P1;HPM_P2
2021/10/03 00:00:13;;;;;;;20.52;16.05;;;19.40;52.80;;;;;;5033243;28;20029;-62
2021/10/03 00:02:42;;;;;;;22.40;16.50;;;19.40;53.50;;;;;;5047425;28;20041;-62
2021/10/03 00:05:11;;;;;;;23.45;17.05;;;19.40;59.20;;;;;;5042724;28;20026;-62
2021/10/03 00:07:39;;;;;;;22.30;16.65;;;;;;;;;;5033896;28;20140;-62
2021/10/03 00:10:06;;;;;;;22.20;17.30;;;19.20;83.40;;;;;;5032992;28;20018;-62
2021/10/03 00:12:32;;;;;;;22.80;17.77;;;;;;;;;;5033294;28;20487;-63
2021/10/03 00:14:58;;;;;;;19.58;15.70;;;19.20;68.80;;;;;;5032749;28;20017;-62
2021/10/03 00:17:24;;;;;;;23.65;17.50;;;19.20;74.20;;;;;;5032441;28;20029;-62
2021/10/03 00:19:49;;;;;;;23.52;18.13;;;19.20;76.60;;;;;;5026836;28;20036;-63
2021/10/03 00:22:15;;;;;;;23.25;15.85;;;19.20;77.70;;;;;;5031730;28;20360;-62
2021/10/03 00:24:41;;;;;;;22.45;16.50;;;19.20;81.30;;;;;;5035696;28;20032;-62
2021/10/03 00:27:06;;;;;;;23.17;15.65;;;19.20;82.70;;;;;;5053533;28;20095;-62
2021/10/03 00:29:34;;;;;;;23.77;17.20;;;;;;;;;;5035613;28;20036;-63
2021/10/03 00:32:02;;;;;;;22.67;17.10;;;19.10;82.70;;;;;;5045177;28;20393;-62
2021/10/03 00:34:28;;;;;;;23.75;16.73;;;19.30;68.00;;;;;;5032317;28;20117;-62
2021/10/03 00:36:54;;;;;;;20.40;17.45;;;19.20;69.20;;;;;;5033416;28;20033;-62
2021/10/03 00:39:19;;;;;;;24.13;16.30;;;19.10;69.60;;;;;;5032311;28;20558;-62
2021/10/03 00:41:45;;;;;;;21.75;15.98;;;19.20;70.30;;;;;;5040175;28;20033;-62
2021/10/03 00:44:11;;;;;;;23.05;17.15;;;19.20;70.00;;;;;;5038904;28;20386;-62
2021/10/03 00:46:37;;;;;;;22.88;17.13;;;19.10;70.30;;;;;;5031405;28;20048;-62
2021/10/03 00:49:03;;;;;;;24.13;18.40;;;19.10;70.00;;;;;;5032891;28;20462;-62
2021/10/03 00:51:29;;;;;;;21.60;17.30;;;19.20;70.00;;;;;;5031988;28;20032;-63
2021/10/03 00:53:54;;;;;;;24.95;17.88;;;19.20;71.00;;;;;;5033112;28;20025;-62
2021/10/03 00:56:20;;;;;;;23.13;17.30;;;19.00;72.50;;;;;;5031814;28;20022;-62
2021/10/03 00:58:46;;;;;;;21.80;16.85;;;19.00;72.40;;;;;;5032625;28;20420;-62
2021/10/03 01:01:12;;;;;;;22.63;18.10;;;;;;;;;;5034771;28;20570;-62
2021/10/03 01:03:38;;;;;;;25.75;17.98;;;19.00;90.40;;;;;;5033138;28;20118;-63
2021/10/03 01:06:06;;;;;;;24.50;18.30;;;;;;;;;;5031810;28;20379;-62
2021/10/03 01:08:32;;;;;;;22.85;18.25;;;18.90;82.70;;;;;;5030928;28;20033;-62
2021/10/03 01:10:57;;;;;;;21.98;16.48;;;18.90;74.40;;;;;;5042200;28;20478;-63
2021/10/03 01:13:24;;;;;;;22.17;17.13;;;18.90;74.90;;;;;;5032860;28;20036;-62
2021/10/03 01:15:52;;;;;;;23.15;17.25;;;18.90;77.20;;;;;;5044725;28;20031;-63
2021/10/03 01:18:19;;;;;;;25.08;17.45;;;18.90;79.70;;;;;;5044878;28;20025;-62
2021/10/03 01:20:45;;;;;;;23.70;16.60;;;18.90;80.10;;;;;;5031579;28;20025;-63
2021/10/03 01:23:12;;;;;;;22.58;16.30;;;18.70;77.60;;;;;;5032372;28;20029;-63
2021/10/03 01:25:40;;;;;;;21.88;17.58;;;;;;;;;;5034262;28;20070;-63
2021/10/03 01:28:07;;;;;;;21.92;17.60;;;19.00;82.90;;;;;;5048650;28;20096;-63
2021/10/03 01:30:33;;;;;;;25.75;18.98;;;19.00;76.40;;;;;;5031123;28;20498;-62
2021/10/03 01:32:59;;;;;;;21.02;17.42;;;19.00;76.90;;;;;;5032464;28;20028;-63
2021/10/03 01:35:24;;;;;;;22.88;17.77;;;19.00;76.60;;;;;;5037707;28;20021;-62
2021/10/03 01:37:50;;;;;;;24.05;17.38;;;19.00;77.00;;;;;;5053106;28;20081;-62
2021/10/03 01:40:17;;;;;;;22.00;16.90;;;19.00;78.30;;;;;;5043381;28;20407;-63
2021/10/03 01:42:43;;;;;;;23.92;17.35;;;18.90;75.30;;;;;;5032439;28;20069;-63
2021/10/03 01:45:13;;;;;;;22.08;17.05;;;18.90;75.60;;;;;;5030489;28;20152;-63
2021/10/03 01:48:06;;;;;;;23.38;17.13;;;18.80;75.80;;;;;;5040698;28;20041;-63
2021/10/03 01:50:41;;;;;;;22.05;16.33;;;18.90;77.50;;;;;;5031186;28;20033;-62
2021/10/03 01:53:09;;;;;;;24.77;18.50;;;18.90;76.10;;;;;;5031202;28;20030;-63
2021/10/03 01:55:36;;;;;;;22.85;17.55;;;19.00;76.10;;;;;;5037908;28;20514;-63
2021/10/03 01:58:02;;;;;;;25.23;17.08;;;19.00;75.50;;;;;;5052828;28;20021;-62
2021/10/03 02:00:28;;;;;;;23.85;17.85;;;19.00;75.90;;;;;;5043863;28;20495;-62
2021/10/03 02:03:02;;;;;;;24.60;17.10;;;19.00;76.10;;;;;;5040248;28;20239;-62
2021/10/03 02:05:37;;;;;;;23.05;16.48;;;18.90;78.10;;;;;;5031025;28;20026;-63
2021/10/03 02:08:07;;;;;;;24.17;17.80;;;19.00;77.50;;;;;;5032333;28;20021;-62
2021/10/03 02:10:36;;;;;;;23.33;16.25;;;18.90;77.10;;;;;;5030946;28;20033;-63
2021/10/03 02:13:02;;;;;;;21.10;17.05;;;19.00;77.40;;;;;;5047388;28;20505;-62
2021/10/03 02:15:28;;;;;;;21.23;16.30;;;19.00;78.40;;;;;;5042243;28;20060;-62
2021/10/03 02:17:54;;;;;;;21.42;16.02;;;19.00;77.40;;;;;;5047685;28;20060;-62
2021/10/03 02:20:20;;;;;;;20.63;15.98;;;18.90;79.00;;;;;;5026513;28;20022;-63
2021/10/03 02:22:46;;;;;;;21.38;15.80;;;19.00;78.20;;;;;;5014822;28;20033;-63
2021/10/03 02:25:12;;;;;;;22.02;16.55;;;19.00;78.40;;;;;;5027460;28;20492;-62
2021/10/03 02:27:38;;;;;;;22.52;16.55;;;19.00;78.60;;;;;;5055606;28;20028;-62
2021/10/03 02:30:06;;;;;;;20.75;14.93;;;19.00;79.00;;;;;;5049498;28;20100;-63
2021/10/03 02:32:32;;;;;;;22.75;16.05;;;19.10;78.90;;;;;;5055649;28;20359;-62
2021/10/03 02:34:58;;;;;;;21.83;15.32;;;19.00;78.20;;;;;;5046149;28;20021;-63
2021/10/03 02:37:25;;;;;;;24.52;16.75;;;19.00;78.90;;;;;;5049377;28;20036;-63
2021/10/03 02:39:51;;;;;;;22.73;16.38;;;19.00;79.30;;;;;;5033332;28;20052;-62
2021/10/03 02:42:17;;;;;;;21.98;15.40;;;19.00;79.00;;;;;;5035276;28;20159;-63
2021/10/03 02:44:43;;;;;;;23.95;15.98;;;19.00;79.50;;;;;;5033789;28;20120;-62
2021/10/03 02:47:13;;;;;;;23.17;17.27;;;18.90;79.60;;;;;;5033255;28;20479;-62
2021/10/03 02:49:43;;;;;;;22.55;16.15;;;18.90;80.40;;;;;;5034899;28;20022;-63
2021/10/03 02:52:10;;;;;;;20.45;15.43;;;19.00;80.40;;;;;;5051529;28;20039;-62
2021/10/03 02:54:37;;;;;;;19.73;15.02;;;19.00;79.50;;;;;;5050123;28;20032;-62
2021/10/03 02:57:04;;;;;;;23.08;16.35;;;19.00;80.60;;;;;;5034367;28;20509;-63
2021/10/03 02:59:30;;;;;;;19.42;15.82;;;19.00;80.40;;;;;;5033487;28;20061;-63
2021/10/03 03:01:55;;;;;;;18.58;14.50;;;19.00;80.70;;;;;;5033646;28;20064;-63
2021/10/03 03:04:21;;;;;;;21.02;15.15;;;18.90;82.00;;;;;;5034773;28;20067;-63
2021/10/03 03:06:47;;;;;;;19.70;15.68;;;19.00;80.80;;;;;;5034352;28;20433;-62
2021/10/03 03:09:12;;;;;;;22.40;15.90;;;18.90;81.70;;;;;;5034708;28;20404;-62
2021/10/03 03:11:38;;;;;;;21.20;14.85;;;19.00;83.00;;;;;;5032206;28;20057;-62
2021/10/03 03:14:03;;;;;;;24.48;16.75;;;18.90;84.10;;;;;;5037461;28;20037;-62
2021/10/03 03:16:29;;;;;;;22.52;15.93;;;18.80;87.60;;;;;;5045087;28;20047;-63
2021/10/03 03:18:55;;;;;;;20.83;15.48;;;18.90;89.80;;;;;;5054534;28;20029;-62
2021/10/03 03:21:20;;;;;;;22.48;16.00;;;18.80;91.40;;;;;;5039217;28;20045;-62
2021/10/03 03:23:46;;;;;;;21.27;15.50;;;18.70;91.40;;;;;;5034343;28;20062;-62
2021/10/03 03:26:12;;;;;;;22.58;15.95;;;18.80;91.80;;;;;;5042179;28;20025;-62
2021/10/03 03:28:37;;;;;;;24.05;15.73;;;18.80;92.00;;;;;;5054729;28;20420;-62
2021/10/03 03:31:03;;;;;;;22.42;16.27;;;18.80;92.50;;;;;;5041153;28;20471;-62
2021/10/03 03:33:29;;;;;;;22.02;16.48;;;18.90;92.80;;;;;;5034346;28;20036;-62
2021/10/03 03:35:55;;;;;;;21.77;16.75;;;18.80;93.40;;;;;;5032865;28;20075;-61
2021/10/03 03:38:20;;;;;;;24.42;15.82;;;18.70;93.50;;;;;;5034050;28;20052;-62
2021/10/03 03:40:47;;;;;;;22.65;16.63;;;18.70;93.80;;;;;;5036460;28;20021;-62
2021/10/03 03:43:12;;;;;;;25.02;17.02;;;18.70;94.30;;;;;;5049480;28;20118;-61
2021/10/03 03:45:39;;;;;;;27.13;16.55;;;18.80;94.10;;;;;;5036301;28;20406;-61
2021/10/03 03:48:05;;;;;;;25.58;16.52;;;18.70;94.40;;;;;;5046840;28;20028;-61
2021/10/03 03:50:31;;;;;;;24.90;16.20;;;18.70;94.50;;;;;;5034845;28;20034;-62
2021/10/03 03:52:57;;;;;;;21.38;16.15;;;18.70;94.70;;;;;;5052660;28;20032;-61
2021/10/03 03:55:23;;;;;;;21.23;15.45;;;18.70;94.80;;;;;;5033589;28;20434;-62
2021/10/03 03:57:51;;;;;;;22.15;15.85;;;18.70;95.40;;;;;;5053970;28;20025;-61
2021/10/03 04:00:17;;;;;;;20.98;15.40;;;18.70;95.20;;;;;;5032901;28;20075;-61
2021/10/03 04:02:43;;;;;;;20.60;15.35;;;18.70;95.60;;;;;;5014291;28;20045;-61
2021/10/03 04:05:09;;;;;;;20.50;16.05;;;18.80;95.30;;;;;;5031124;28;20013;-61
2021/10/03 04:07:34;;;;;;;23.73;16.23;;;18.90;95.50;;;;;;5037544;28;20035;-61
2021/10/03 04:10:00;;;;;;;24.30;16.80;;;18.80;95.70;;;;;;5038002;28;20022;-61
2021/10/03 04:12:26;;;;;;;22.25;16.60;;;18.80;95.90;;;;;;5032609;28;20033;-61
2021/10/03 04:14:51;;;;;;;22.27;15.60;;;18.80;96.40;;;;;;5033741;28;20429;-61
2021/10/03 04:17:17;;;;;;;24.13;17.10;;;18.80;96.30;;;;;;5048390;28;20044;-61
2021/10/03 04:19:42;;;;;;;23.25;16.77;;;18.80;96.40;;;;;;5040354;28;20150;-61
2021/10/03 04:22:08;;;;;;;25.70;16.55;;;18.80;96.20;;;;;;5016191;28;20038;-61
2021/10/03 04:24:34;;;;;;;23.75;16.63;;;18.80;96.80;;;;;;5024381;28;20037;-61
2021/10/03 04:26:59;;;;;;;19.77;15.25;;;18.70;96.70;;;;;;5032513;28;20026;-61
2021/10/03 04:29:25;;;;;;;22.13;15.57;;;18.80;96.50;;;;;;5033337;28;20123;-61
2021/10/03 04:31:51;;;;;;;18.48;15.02;;;18.80;96.60;;;;;;5032372;28;20030;-61
2021/10/03 04:34:16;;;;;;;21.83;15.63;;;18.90;97.10;;;;;;5033165;28;20033;-61
2021/10/03 04:36:42;;;;;;;22.40;15.25;;;18.80;97.20;;;;;;5032753;28;20029;-61
2021/10/03 04:39:08;;;;;;;22.15;16.02;;;18.80;97.60;;;;;;5030785;28;20060;-61
2021/10/03 04:41:33;;;;;;;22.52;16.27;;;18.80;97.40;;;;;;5032835;28;20079;-61
2021/10/03 04:43:59;;;;;;;25.75;15.90;;;18.80;97.50;;;;;;5032282;28;20104;-61
2021/10/03 04:46:24;;;;;;;19.90;16.02;;;18.70;97.80;;;;;;5040104;28;20040;-61
2021/10/03 04:48:50;;;;;;;27.42;17.27;;;18.80;98.10;;;;;;5044090;28;20104;-61
2021/10/03 04:51:15;;;;;;;26.00;16.90;;;18.80;99.20;;;;;;5031922;28;20388;-61
2021/10/03 04:53:42;;;;;;;23.60;17.10;;;18.60;99.90;;;;;;5032386;28;20067;-61
2021/10/03 04:56:07;;;;;;;25.48;17.52;;;18.60;99.90;;;;;;5037015;28;20029;-61
2021/10/03 04:58:33;;;;;;;25.33;16.42;;;18.70;99.90;;;;;;5033575;28;20040;-61
2021/10/03 05:00:59;;;;;;;24.77;17.80;;;18.70;99.90;;;;;;5031960;28;20495;-61
2021/10/03 05:03:25;;;;;;;27.58;18.10;;;18.60;99.90;;;;;;5032841;28;20060;-61
2021/10/03 05:05:52;;;;;;;23.08;17.23;;;18.60;99.90;;;;;;5033578;28;20084;-61
2021/10/03 05:08:18;;;;;;;23.13;17.05;;;18.70;99.90;;;;;;5039031;28;20053;-61
2021/10/03 05:10:45;;;;;;;26.67;18.30;;;18.70;99.90;;;;;;5031692;28;20064;-61
2021/10/03 05:13:10;;;;;;;22.52;16.48;;;18.80;99.90;;;;;;5032678;28;20112;-62
2021/10/03 05:15:36;;;;;;;25.30;16.58;;;18.70;99.90;;;;;;5031667;28;20109;-61
2021/10/03 05:18:02;;;;;;;25.70;18.20;;;18.60;99.90;;;;;;5032503;28;20072;-61
2021/10/03 05:20:28;;;;;;;32.65;18.92;;;18.70;99.90;;;;;;5032631;28;20025;-62
2021/10/03 05:22:54;;;;;;;25.90;18.85;;;18.50;99.90;;;;;;5030849;28;20037;-62
2021/10/03 05:25:20;;;;;;;24.40;17.38;;;18.60;99.90;;;;;;5032429;28;20495;-62
2021/10/03 05:27:47;;;;;;;27.42;18.73;;;18.60;99.90;;;;;;5043068;28;20056;-62
2021/10/03 05:30:13;;;;;;;28.55;19.40;;;18.60;99.90;;;;;;5032694;28;20021;-62
2021/10/03 05:32:38;;;;;;;26.50;19.85;;;18.60;99.90;;;;;;5031677;28;20395;-62
2021/10/03 05:35:05;;;;;;;28.30;20.15;;;18.60;99.90;;;;;;5032252;28;20033;-62
2021/10/03 05:37:30;;;;;;;28.98;19.73;;;18.60;99.90;;;;;;5044138;28;20466;-62
2021/10/03 05:39:56;;;;;;;29.95;18.75;;;18.70;99.90;;;;;;5034307;28;20030;-61
2021/10/03 05:42:22;;;;;;;30.08;21.63;;;18.60;99.90;;;;;;5031455;28;20046;-61
2021/10/03 05:44:47;;;;;;;26.17;20.42;;;18.60;99.90;;;;;;5032124;28;20029;-62
2021/10/03 05:47:13;;;;;;;31.25;22.23;;;18.70;99.90;;;;;;5042906;28;20040;-61
2021/10/03 05:49:39;;;;;;;31.70;23.17;;;18.50;99.90;;;;;;5030338;28;20522;-62
2021/10/03 05:52:05;;;;;;;31.30;24.10;;;18.60;99.90;;;;;;5031289;28;20048;-62
2021/10/03 05:54:30;;;;;;;32.17;23.20;;;18.50;99.90;;;;;;5030695;28;20025;-62
2021/10/03 05:56:56;;;;;;;30.08;22.65;;;18.60;99.90;;;;;;5036324;28;20025;-61
2021/10/03 05:59:21;;;;;;;30.50;23.67;;;18.60;99.90;;;;;;5017892;28;20076;-61
2021/10/03 06:01:47;;;;;;;33.58;23.23;;;18.50;99.90;;;;;;5032821;28;20053;-62
2021/10/03 06:04:12;;;;;;;29.50;22.38;;;18.40;99.90;;;;;;5034179;28;20112;-62
2021/10/03 06:06:38;;;;;;;30.52;23.02;;;18.50;99.90;;;;;;5040550;28;20528;-62
2021/10/03 06:09:04;;;;;;;32.85;23.13;;;18.40;99.90;;;;;;5043424;28;20184;-62
2021/10/03 06:11:30;;;;;;;32.35;24.20;;;18.30;99.90;;;;;;5034063;28;20041;-62
2021/10/03 06:13:57;;;;;;;29.25;23.88;;;18.50;99.90;;;;;;5033352;28;20091;-61
2021/10/03 06:16:23;;;;;;;27.95;22.08;;;18.40;99.90;;;;;;5037488;28;20021;-62
2021/10/03 06:18:49;;;;;;;27.88;21.75;;;18.40;99.90;;;;;;5041139;28;20383;-61
2021/10/03 06:21:15;;;;;;;26.80;20.25;;;18.30;99.90;;;;;;5032459;28;20030;-61
2021/10/03 06:23:44;;;;;;;27.10;19.40;;;18.40;99.90;;;;;;5031034;28;20056;-62
2021/10/03 06:26:11;;;;;;;26.33;19.92;;;18.30;99.90;;;;;;5032166;28;20026;-62
2021/10/03 06:28:37;;;;;;;26.08;20.23;;;18.40;99.90;;;;;;5029960;28;20491;-62
2021/10/03 06:31:04;;;;;;;24.33;18.45;;;18.30;99.60;;;;;;5033418;28;20080;-62
2021/10/03 06:33:30;;;;;;;26.15;20.40;;;18.40;99.80;;;;;;5034595;28;20025;-62
2021/10/03 06:35:57;;;;;;;24.58;19.10;;;18.40;99.80;;;;;;5028122;28;20559;-62
2021/10/03 06:38:22;;;;;;;24.45;18.60;;;18.40;99.90;;;;;;5033430;28;20036;-62
2021/10/03 06:40:48;;;;;;;25.23;19.20;;;18.40;99.10;;;;;;5043186;28;20030;-62
2021/10/03 06:43:13;;;;;;;22.33;17.55;;;18.30;99.30;;;;;;5032489;28;20119;-62
2021/10/03 06:45:39;;;;;;;25.25;18.52;;;18.30;99.60;;;;;;5033666;28;20017;-62
2021/10/03 06:48:07;;;;;;;25.70;18.35;;;18.40;99.10;;;;;;5033020;28;20025;-62
2021/10/03 06:50:33;;;;;;;22.88;17.98;;;18.40;98.90;;;;;;5033268;28;20053;-62
2021/10/03 06:52:58;;;;;;;24.63;18.65;;;18.40;98.60;;;;;;5033868;28;20490;-61
2021/10/03 06:55:24;;;;;;;21.00;17.25;;;18.50;98.40;;;;;;5034686;28;20131;-62
2021/10/03 06:57:50;;;;;;;21.88;17.92;;;18.50;98.20;;;;;;5033612;28;20041;-62
2021/10/03 07:00:15;;;;;;;19.83;16.45;;;18.40;98.00;;;;;;5032769;28;20048;-61
2021/10/03 07:02:42;;;;;;;21.70;16.10;;;18.40;98.00;;;;;;5032199;28;20043;-62
2021/10/03 07:05:08;;;;;;;22.27;16.92;;;18.50;98.10;;;;;;5032945;28;22136;-62
2021/10/03 07:07:34;;;;;;;23.60;17.42;;;18.50;97.80;;;;;;5033268;28;20095;-62
2021/10/03 07:09:59;;;;;;;20.25;16.52;;;18.40;97.70;;;;;;5034929;28;20490;-61
2021/10/03 07:12:25;;;;;;;22.95;17.45;;;18.50;98.00;;;;;;5043535;28;20047;-62
2021/10/03 07:14:51;;;;;;;25.60;18.70;;;18.60;97.50;;;;;;5037630;28;20021;-61
2021/10/03 07:17:16;;;;;;;19.83;16.85;;;18.60;97.60;;;;;;5039606;28;20028;-62
2021/10/03 07:19:42;;;;;;;25.98;18.10;;;18.70;97.20;;;;;;5033262;28;20025;-62
2021/10/03 07:22:08;;;;;;;21.95;17.40;;;18.70;96.90;;;;;;5034375;28;20506;-62
2021/10/03 07:24:34;;;;;;;21.20;18.05;;;18.80;96.90;;;;;;5033749;28;20030;-62
2021/10/03 07:27:01;;;;;;;24.73;17.67;;;18.90;96.80;;;;;;5044446;28;20134;-62
2021/10/03 07:29:26;;;;;;;21.02;17.73;;;18.90;96.40;;;;;;5032505;28;20033;-62
2021/10/03 07:31:52;;;;;;;25.17;16.63;;;18.90;96.10;;;;;;5032369;28;20021;-62
2021/10/03 07:34:18;;;;;;;19.33;15.80;;;19.00;96.00;;;;;;5033469;28;20037;-62
2021/10/03 07:36:43;;;;;;;20.85;16.77;;;18.90;95.80;;;;;;5033303;28;20049;-62
2021/10/03 07:39:09;;;;;;;22.13;16.92;;;19.00;95.70;;;;;;5032705;28;20068;-62
2021/10/03 07:41:35;;;;;;;20.08;16.73;;;19.00;95.50;;;;;;5032311;28;20053;-62
2021/10/03 07:44:00;;;;;;;19.90;15.85;;;19.10;95.10;;;;;;5032850;28;20055;-62
2021/10/03 07:46:26;;;;;;;20.92;17.45;;;19.20;95.10;;;;;;5032594;28;20052;-62
2021/10/03 07:48:52;;;;;;;21.05;17.25;;;19.20;95.10;;;;;;5032876;28;20023;-62
2021/10/03 07:51:18;;;;;;;22.98;16.98;;;19.10;94.90;;;;;;5032839;28;20117;-62
2021/10/03 07:53:44;;;;;;;20.98;17.15;;;19.20;95.00;;;;;;5033421;28;20386;-62
2021/10/03 07:56:10;;;;;;;22.00;16.15;;;19.20;94.70;;;;;;5033263;28;20025;-61
2021/10/03 07:58:36;;;;;;;20.90;16.60;;;19.40;94.60;;;;;;5036931;28;20026;-62
2021/10/03 08:01:01;;;;;;;23.38;17.00;;;19.40;94.60;;;;;;5032992;28;20136;-62
2021/10/03 08:03:27;;;;;;;18.52;16.40;;;19.40;94.40;;;;;;5031270;28;20042;-61
2021/10/03 08:05:52;;;;;;;25.55;17.38;;;19.50;94.40;;;;;;5026197;28;20033;-61
2021/10/03 08:08:18;;;;;;;20.00;16.88;;;19.50;94.20;;;;;;5026790;28;20393;-61
2021/10/03 08:10:44;;;;;;;22.92;17.25;;;19.50;94.00;;;;;;5032500;28;20109;-61
2021/10/03 08:13:12;;;;;;;20.60;16.85;;;19.40;93.90;;;;;;5031960;28;20022;-62
2021/10/03 08:15:39;;;;;;;20.67;18.17;;;19.40;93.80;;;;;;5030678;28;20029;-62
2021/10/03 08:18:05;;;;;;;21.75;17.23;;;19.50;93.70;;;;;;5029770;28;20017;-60
2021/10/03 08:20:31;;;;;;;21.10;16.33;;;19.50;93.40;;;;;;5031305;28;20029;-62
2021/10/03 08:22:57;;;;;;;23.23;16.30;;;19.60;93.20;;;;;;5031878;28;20045;-62
2021/10/03 08:25:23;;;;;;;20.73;15.23;;;19.50;92.90;;;;;;5029740;28;20116;-61
2021/10/03 08:27:48;;;;;;;22.85;17.70;;;19.50;92.70;;;;;;5031964;28;20033;-62
2021/10/03 08:30:15;;;;;;;20.90;17.58;;;19.40;93.60;;;;;;5046911;28;20028;-62
2021/10/03 08:32:40;;;;;;;19.77;16.95;;;19.30;93.90;;;;;;5051180;28;20029;-62
2021/10/03 08:35:07;;;;;;;19.85;16.50;;;19.40;93.90;;;;;;5041883;28;20021;-62
2021/10/03 08:37:33;;;;;;;23.73;18.20;;;19.50;93.40;;;;;;5032317;28;20053;-62
2021/10/03 08:39:59;;;;;;;20.13;17.10;;;19.60;93.50;;;;;;5032834;28;20391;-62
2021/10/03 08:42:26;;;;;;;20.15;17.05;;;19.60;93.50;;;;;;5031807;28;20047;-62
2021/10/03 08:44:51;;;;;;;20.92;16.42;;;19.50;93.20;;;;;;5033182;28;20075;-62
2021/10/03 08:47:17;;;;;;;19.10;15.32;;;19.50;93.00;;;;;;5032750;28;20440;-62
2021/10/03 08:49:43;;;;;;;21.00;16.77;;;19.70;92.90;;;;;;5031671;28;20022;-62
2021/10/03 08:52:09;;;;;;;22.80;16.17;;;19.80;92.40;;;;;;5030884;28;20030;-62
2021/10/03 08:54:39;;;;;;;19.88;16.98;;;19.60;92.60;;;;;;5033064;28;20064;-62
2021/10/03 08:57:06;;;;;;;20.65;16.23;;;19.70;92.70;;;;;;5032552;28;20029;-62
2021/10/03 08:59:32;;;;;;;24.88;19.92;;;19.90;92.50;;;;;;5031997;28;20428;-62
2021/10/03 09:01:58;;;;;;;22.98;19.17;;;19.70;92.20;;;;;;5032660;28;20057;-62
2021/10/03 09:04:35;;;;;;;21.17;16.75;;;19.70;92.20;;;;;;5048362;28;20025;-62
2021/10/03 09:07:13;;;;;;;21.08;17.95;;;19.80;92.50;;;;;;5031265;28;20060;-62
2021/10/03 09:09:57;;;;;;;27.10;20.10;;;19.70;92.40;;;;;;5033074;28;20030;-62
2021/10/03 09:12:36;;;;;;;;;;;19.80;92.60;;;;;;5039192;28;20033;-62
2021/10/03 09:15:14;;;;;;;19.40;16.90;;;19.70;92.70;;;;;;5032119;28;20307;-62
2021/10/03 09:17:40;;;;;;;20.60;18.08;;;19.70;92.50;;;;;;5031611;28;20052;-62
2021/10/03 09:20:07;;;;;;;23.90;19.50;;;19.80;93.10;;;;;;5032848;28;20418;-62
2021/10/03 09:22:55;;;;;;;24.60;19.10;;;19.80;93.40;;;;;;5035599;28;20040;-62
2021/10/03 09:25:46;;;;;;;22.02;18.38;;;20.00;93.40;;;;;;5046893;28;20542;-62
2021/10/03 09:28:16;;;;;;;22.73;19.42;;;20.00;93.70;;;;;;5023203;28;20104;-62
2021/10/03 09:31:05;;;;;;;24.42;18.45;;;19.90;93.10;;;;;;5035509;28;20092;-62
2021/10/03 09:33:53;;;;;;;27.45;20.58;;;20.00;93.30;;;;;;5035984;28;20026;-62
2021/10/03 09:36:34;;;;;;;23.17;18.40;;;19.60;93.00;;;;;;5036293;28;20479;-62
2021/10/03 09:39:02;;;;;;;22.17;19.00;;;19.60;93.70;;;;;;5035609;28;20499;-62
2021/10/03 09:41:31;;;;;;;20.95;17.20;;;19.70;93.50;;;;;;5035580;28;20130;-62
2021/10/03 09:44:09;;;;;;;24.35;18.88;;;19.70;93.60;;;;;;5048628;28;20061;-62
2021/10/03 09:46:40;;;;;;;21.95;17.42;;;19.70;93.80;;;;;;5027629;28;20025;-62
2021/10/03 09:49:15;;;;;;;25.13;20.00;;;19.80;93.50;;;;;;5033457;28;20124;-62
2021/10/03 09:51:49;;;;;;;22.27;18.23;;;19.70;93.60;;;;;;5035473;28;20372;-62
2021/10/03 09:54:16;;;;;;;22.73;18.17;;;19.70;93.50;;;;;;5034297;28;20026;-62
2021/10/03 09:56:43;;;;;;;21.67;18.30;;;19.60;93.60;;;;;;5034933;28;20033;-62
2021/10/03 09:59:09;;;;;;;22.98;19.90;;;19.80;93.60;;;;;;5044437;28;20036;-62
2021/10/03 10:01:47;;;;;;;23.83;19.50;;;19.80;93.30;;;;;;5025034;28;20078;-62
2021/10/03 10:04:15;;;;;;;23.40;19.17;;;20.00;93.00;;;;;;5033658;28;20164;-63
2021/10/03 10:06:43;;;;;;;23.58;19.60;;;20.20;92.80;;;;;;5031101;28;20479;-62
2021/10/03 10:09:11;;;;;;;22.73;18.05;;;20.40;92.10;;;;;;5032049;28;20034;-62
2021/10/03 10:11:48;;;;;;;19.42;16.77;;;20.40;91.90;;;;;;5035603;28;20028;-62
2021/10/03 10:14:15;;;;;;;25.20;17.55;;;20.50;91.80;;;;;;5052777;28;20078;-62
2021/10/03 10:16:47;;;;;;;21.88;18.20;;;20.60;91.30;;;;;;5016066;28;20479;-62
2021/10/03 10:19:34;;;;;;;26.00;19.05;;;20.70;91.10;;;;;;5033056;28;20075;-61
2021/10/03 10:22:12;;;;;;;20.80;18.17;;;20.60;91.80;;;;;;5033421;28;20179;-64
2021/10/03 10:24:47;;;;;;;23.10;20.77;;;20.60;91.60;;;;;;5026132;28;20498;-64
2021/10/03 10:27:18;;;;;;;23.08;19.65;;;20.50;91.60;;;;;;5032054;28;20045;-64
2021/10/03 10:29:57;;;;;;;21.75;18.23;;;20.40;92.30;;;;;;5024160;28;20034;-64
2021/10/03 10:32:24;;;;;;;22.98;17.67;;;20.30;92.50;;;;;;5023483;28;20383;-64
2021/10/03 10:35:07;;;;;;;22.15;18.48;;;20.30;92.20;;;;;;5022115;28;20030;-63
2021/10/03 10:37:54;;;;;;;22.30;17.20;;;20.20;92.20;;;;;;5033401;28;20055;-63
2021/10/03 10:42:51;;;;;;;23.05;17.63;;;20.30;92.30;;;;;;5033015;28;20046;-61
2021/10/03 10:45:41;;;;;;;20.75;18.02;;;20.40;92.00;;;;;;5034633;28;20021;-63
2021/10/03 10:48:06;;;;;;;21.20;17.25;;;20.30;91.90;;;;;;5034884;28;20384;-63
2021/10/03 10:50:53;;;;;;;24.40;17.85;;;20.20;91.90;;;;;;5034785;28;20068;-63
2021/10/03 10:53:32;;;;;;;21.90;16.60;;;20.30;91.80;;;;;;5027326;28;20124;-63
2021/10/03 10:56:18;;;;;;;21.15;17.05;;;20.30;91.90;;;;;;5024649;28;20026;-63
2021/10/03 10:58:50;;;;;;;19.95;17.05;;;20.20;91.90;;;;;;5033165;28;20479;-63
2021/10/03 11:01:16;;;;;;;20.42;17.17;;;20.40;92.10;;;;;;5036329;28;20048;-62
2021/10/03 11:03:42;;;;;;;21.65;17.58;;;20.30;91.90;;;;;;5032620;28;20037;-62
2021/10/03 11:06:31;;;;;;;22.33;18.15;;;20.30;92.00;;;;;;5034204;28;20034;-62
2021/10/03 11:08:56;;;;;;;21.42;16.55;;;20.20;92.10;;;;;;5020432;28;20503;-62
2021/10/03 11:11:23;;;;;;;21.27;17.55;;;20.30;92.10;;;;;;5024516;28;20030;-62
2021/10/03 11:13:53;;;;;;;20.50;16.58;;;20.50;91.90;;;;;;5032782;28;20156;-62
2021/10/03 11:16:21;;;;;;;23.90;18.85;;;20.60;92.00;;;;;;5033338;28;20064;-62
2021/10/03 11:18:56;;;;;;;28.52;20.75;;;20.70;92.10;;;;;;5032055;28;20029;-62
2021/10/03 11:21:29;;;;;;;27.95;20.25;;;20.80;93.00;;;;;;5031665;28;20026;-62
2021/10/03 11:23:57;;;;;;;23.73;20.00;;;21.10;93.00;;;;;;5032725;28;20030;-62
2021/10/03 11:26:23;;;;;;;24.73;19.58;;;21.00;93.10;;;;;;5033061;28;20563;-62
2021/10/03 11:28:54;;;;;;;22.63;20.15;;;20.80;93.40;;;;;;5031077;28;20036;-62
2021/10/03 11:31:54;;;;;;;23.77;19.65;;;20.80;94.80;;;;;;5033433;28;20021;-61
2021/10/03 11:34:26;;;;;;;27.63;20.88;;;20.90;94.70;;;;;;5031931;28;20021;-61
2021/10/03 11:36:51;;;;;;;30.08;21.02;;;20.70;95.60;;;;;;5032518;28;20025;-61
2021/10/03 11:39:31;;;;;;;23.92;21.30;;;20.70;94.70;;;;;;5028763;28;20038;-62
2021/10/03 11:41:57;;;;;;;30.67;25.70;;;20.60;94.60;;;;;;5032047;28;20045;-61
2021/10/03 11:44:23;;;;;;;26.83;21.52;;;20.40;95.20;;;;;;5030597;28;20052;-62
2021/10/03 11:47:13;;;;;;;27.02;21.90;;;20.50;94.80;;;;;;5033300;28;20021;-61
2021/10/03 11:49:42;;;;;;;25.77;20.65;;;20.50;95.30;;;;;;5031907;28;20029;-61
2021/10/03 11:52:09;;;;;;;26.38;21.83;;;20.60;95.10;;;;;;5030311;28;20025;-61
2021/10/03 11:54:48;;;;;;;35.65;24.05;;;20.70;94.80;;;;;;5037959;28;20507;-61
2021/10/03 11:57:27;;;;;;;24.63;20.85;;;20.80;94.90;;;;;;5040521;28;20021;-62
2021/10/03 12:00:08;;;;;;;28.42;21.40;;;20.90;94.70;;;;;;5031642;28;20045;-61
2021/10/03 12:02:42;;;;;;;28.45;20.95;;;21.00;95.20;;;;;;5031546;28;20033;-61
2021/10/03 12:05:09;;;;;;;24.90;20.55;;;20.80;95.10;;;;;;5026597;28;20455;-63
2021/10/03 12:07:37;;;;;;;25.25;20.27;;;20.70;95.20;;;;;;5029947;28;20544;-63
2021/10/03 12:10:12;;;;;;;25.75;19.95;;;20.40;95.30;;;;;;5049288;28;20029;-63
2021/10/03 12:12:55;;;;;;;24.35;19.42;;;20.30;95.20;;;;;;5034100;28;20025;-63
2021/10/03 12:16:02;;;;;;;27.60;21.02;;;20.20;96.40;;;;;;5028287;28;20029;-63
2021/10/03 12:18:31;;;;;;;28.52;21.70;;;20.10;96.20;;;;;;5033140;28;20049;-62
2021/10/03 12:21:06;;;;;;;27.35;21.92;;;20.10;97.10;;;;;;5037190;28;20030;-62
2021/10/03 12:23:44;;;;;;;26.02;22.20;;;19.90;98.10;;;;;;5029389;28;20091;-61
2021/10/03 12:26:27;;;;;;;30.30;22.23;;;19.90;99.70;;;;;;5043389;28;20021;-62
2021/10/03 12:29:05;;;;;;;31.90;24.15;;;19.80;99.90;;;;;;5031251;28;20025;-62
2021/10/03 12:31:51;;;;;;;33.08;25.08;;;19.90;99.40;;;;;;5033070;28;20036;-62
2021/10/03 12:34:17;;;;;;;29.23;24.02;;;20.10;99.90;;;;;;5030192;28;20033;-62
2021/10/03 12:36:54;;;;;;;32.67;24.48;;;19.90;98.90;;;;;;5026786;28;20033;-61